(°C)
(°C)
-2°
-2°
-3°
-3°
-3°
-3°
-4°
NV
NV
NV
NV
NV
NV
NV
(km/h)
31-58
30-55
30-54
28-51
27-49
25-48
24-45
(mm)
0
0
0
0
0
0
0
(%)
5
5
10
0
0
0
5

Elevația soarelui

/ 17.6°
sun-icon
UV 1
07:22
16:44
Al doilea pătrar (308°)
03:57
12:18

METAR pentru Ivanka pri Dunaji (LZIB)

Ora Condiții Temperatură/
Punctul de rouă
Vânt Vizibilitate Vremea Nori Presiune Schimbă Brut
VFR 6°C / -2°C 300º 27kt Gust 40kt >10km - Scattered Clouds 3900ft 1021 No Significant change LZIB 281230Z 30027G40KT 9999 SCT039 06/M02 Q1021 NOSIG
VFR 6°C / -3°C 300º 24kt Gust 35kt >10km - Scattered Clouds 4000ft 1022 No Significant change LZIB 281200Z 30024G35KT 9999 SCT040 06/M03 Q1022 NOSIG
VFR 7°C / -3°C 300º 22kt >10km - Scattered Clouds 4400ft 1022 No Significant change LZIB 281130Z 30022KT 9999 SCT044 07/M03 Q1022 NOSIG
VFR 7°C / -3°C 300º 20kt Gust 31kt >10km - Few Clouds 4000ft 1022 No Significant change LZIB 281100Z 30020G31KT 9999 FEW040 07/M03 Q1022 NOSIG
VFR 7°C / -3°C 290º 22kt >10km - Clouds and Visibility OK 1022 No Significant change LZIB 281030Z 29022KT CAVOK 07/M03 Q1022 NOSIG
VFR 6°C / -1°C 300º variable 270º to 330º 16kt >10km - Few Clouds 3000ft 1022 No Significant change LZIB 281000Z 30016KT 270V330 9999 FEW030 06/M01 Q1022 NOSIG
VFR 5°C / -1°C 310º variable 260º to 350º 14kt >10km Light Showers Rain Light Showers Snow 3.00mm precipitation Vertical Visibility of 0ft.
Scattered Clouds 4300ft
1022 No Significant change LZIB 280930Z 31014KT 260V350 9999 -SHRASN FEW020TCU SCT043 05/M01 Q1022 NOSIG
VFR 5°C / -2°C 310º variable 280º to 340º 23kt Gust 38kt >10km in the Vicinity Showers Vertical Visibility of 0ft. 1022 No Significant change LZIB 280900Z 31023G38KT 280V340 9999 VCSH SCT042 05/M02 Q1022 NOSIG
VFR 5°C / -2°C 290º 18kt Gust 30kt >10km in the Vicinity Showers Vertical Visibility of 0ft. 1021 No Significant change LZIB 280830Z 29018G30KT 9999 VCSH FEW030 05/M02 Q1021 NOSIG
VFR 5°C / -1°C 290º 19kt Gust 31kt >10km - Few Clouds 3000ft 1021 No Significant change LZIB 280800Z 29019G31KT 9999 FEW030 05/M01 Q1021 NOSIG
VFR 5°C / -1°C 290º 18kt Gust 30kt >10km - Few Clouds 3000ft
Scattered Clouds 4200ft
1020 No Significant change LZIB 280730Z 29018G30KT 9999 FEW030 SCT042 05/M01 Q1020 NOSIG
VFR 4°C / 0°C 300º 23kt >10km in the Vicinity Showers Vertical Visibility of 0ft.
Scattered Clouds 4200ft
1020 No Significant change LZIB 280700Z 30023KT 9999 VCSH FEW020 SCT042 04/M00 Q1020 NOSIG
VFR 5°C / -1°C 290º 18kt Gust 28kt >10km Showers Rain 3.00mm precipitation Vertical Visibility of 0ft.
Scattered Clouds 4200ft
1020 No Significant change LZIB 280630Z 29018G28KT 9999 SHRA FEW033 SCT042 05/M01 Q1020 NOSIG
VFR 5°C / -1°C 290º 19kt Gust 32kt >10km - Few Clouds 3300ft 1020 No Significant change LZIB 280600Z 29019G32KT 9999 FEW033 05/M01 Q1020 NOSIG
VFR 5°C / -1°C 280º 19kt Gust 29kt >10km - Few Clouds 4800ft 1019 No Significant change LZIB 280530Z 28019G29KT 9999 FEW048 05/M01 Q1019 NOSIG
VFR 4°C / 0°C 270º 16kt >10km - Clouds and Visibility OK 1019 No Significant change LZIB 280500Z 27016KT CAVOK 04/M00 Q1019 NOSIG
VFR 4°C / 0°C 280º 14kt >10km - Few Clouds 4800ft 1019 No Significant change LZIB 280430Z 28014KT 9999 FEW048 04/M00 Q1019 NOSIG
VFR 5°C / 0°C 280º 15kt >10km - Few Clouds 3300ft 1019 No Significant change LZIB 280400Z 28015KT 9999 FEW033 05/00 Q1019 NOSIG
VFR 5°C / 0°C 270º variable 240º to 300º 15kt >10km - Scattered Clouds 3300ft 1019 No Significant change LZIB 280330Z 27015KT 240V300 9999 SCT033 05/00 Q1019 NOSIG
VFR 5°C / 0°C 270º 16kt >10km - Broken Clouds 3300ft 1019 No Significant change LZIB 280300Z 27016KT 9999 BKN033 05/00 Q1019 NOSIG
VFR 5°C / 0°C 270º 17kt >10km - Few Clouds 3600ft 1019 No Significant change LZIB 280230Z 27017KT 9999 FEW036 05/00 Q1019 NOSIG
VFR 5°C / 0°C 280º 19kt Gust 29kt >10km - Broken Clouds 3500ft 1019 No Significant change LZIB 280200Z 28019G29KT 9999 BKN035 05/00 Q1019 NOSIG
VFR 5°C / 0°C 290º 23kt >10km - Few Clouds 2700ft 1018 No Significant change LZIB 280130Z 29023KT 9999 FEW027 05/00 Q1018 NOSIG
VFR 4°C / 0°C 290º 20kt Gust 30kt >10km - Few Clouds 4900ft 1017 No Significant change LZIB 280100Z 29020G30KT 9999 FEW049 04/M00 Q1017 NOSIG

VFR

6°C / -2°C

[Mai mult]
Vânt 300º 27kt Gust 40kt
Vizibilitate >10km
Vremea -
Nori Scattered Clouds 3900ft
Presiune 1021
Schimbă No Significant change
Brut LZIB 281230Z 30027G40KT 9999 SCT039 06/M02 Q1021 NOSIG

VFR

6°C / -3°C

[Mai mult]
Vânt 300º 24kt Gust 35kt
Vizibilitate >10km
Vremea -
Nori Scattered Clouds 4000ft
Presiune 1022
Schimbă No Significant change
Brut LZIB 281200Z 30024G35KT 9999 SCT040 06/M03 Q1022 NOSIG

VFR

7°C / -3°C

[Mai mult]
Vânt 300º 22kt
Vizibilitate >10km
Vremea -
Nori Scattered Clouds 4400ft
Presiune 1022
Schimbă No Significant change
Brut LZIB 281130Z 30022KT 9999 SCT044 07/M03 Q1022 NOSIG

VFR

7°C / -3°C

[Mai mult]
Vânt 300º 20kt Gust 31kt
Vizibilitate >10km
Vremea -
Nori Few Clouds 4000ft
Presiune 1022
Schimbă No Significant change
Brut LZIB 281100Z 30020G31KT 9999 FEW040 07/M03 Q1022 NOSIG

VFR

7°C / -3°C

[Mai mult]
Vânt 290º 22kt
Vizibilitate >10km
Vremea -
Nori Clouds and Visibility OK
Presiune 1022
Schimbă No Significant change
Brut LZIB 281030Z 29022KT CAVOK 07/M03 Q1022 NOSIG

VFR

6°C / -1°C

[Mai mult]
Vânt 300º variable 270º to 330º 16kt
Vizibilitate >10km
Vremea -
Nori Few Clouds 3000ft
Presiune 1022
Schimbă No Significant change
Brut LZIB 281000Z 30016KT 270V330 9999 FEW030 06/M01 Q1022 NOSIG

VFR

5°C / -1°C

[Mai mult]
Vânt 310º variable 260º to 350º 14kt
Vizibilitate >10km
Vremea Light Showers Rain Light Showers Snow 3.00mm precipitation
Nori Vertical Visibility of 0ft.
Scattered Clouds 4300ft
Presiune 1022
Schimbă No Significant change
Brut LZIB 280930Z 31014KT 260V350 9999 -SHRASN FEW020TCU SCT043 05/M01 Q1022 NOSIG

VFR

5°C / -2°C

[Mai mult]
Vânt 310º variable 280º to 340º 23kt Gust 38kt
Vizibilitate >10km
Vremea in the Vicinity Showers
Nori Vertical Visibility of 0ft.
Presiune 1022
Schimbă No Significant change
Brut LZIB 280900Z 31023G38KT 280V340 9999 VCSH SCT042 05/M02 Q1022 NOSIG

VFR

5°C / -2°C

[Mai mult]
Vânt 290º 18kt Gust 30kt
Vizibilitate >10km
Vremea in the Vicinity Showers
Nori Vertical Visibility of 0ft.
Presiune 1021
Schimbă No Significant change
Brut LZIB 280830Z 29018G30KT 9999 VCSH FEW030 05/M02 Q1021 NOSIG

VFR

5°C / -1°C

[Mai mult]
Vânt 290º 19kt Gust 31kt
Vizibilitate >10km
Vremea -
Nori Few Clouds 3000ft
Presiune 1021
Schimbă No Significant change
Brut LZIB 280800Z 29019G31KT 9999 FEW030 05/M01 Q1021 NOSIG

VFR

5°C / -1°C

[Mai mult]
Vânt 290º 18kt Gust 30kt
Vizibilitate >10km
Vremea -
Nori Few Clouds 3000ft
Scattered Clouds 4200ft
Presiune 1020
Schimbă No Significant change
Brut LZIB 280730Z 29018G30KT 9999 FEW030 SCT042 05/M01 Q1020 NOSIG

VFR

4°C / 0°C

[Mai mult]
Vânt 300º 23kt
Vizibilitate >10km
Vremea in the Vicinity Showers
Nori Vertical Visibility of 0ft.
Scattered Clouds 4200ft
Presiune 1020
Schimbă No Significant change
Brut LZIB 280700Z 30023KT 9999 VCSH FEW020 SCT042 04/M00 Q1020 NOSIG

VFR

5°C / -1°C

[Mai mult]
Vânt 290º 18kt Gust 28kt
Vizibilitate >10km
Vremea Showers Rain 3.00mm precipitation
Nori Vertical Visibility of 0ft.
Scattered Clouds 4200ft
Presiune 1020
Schimbă No Significant change
Brut LZIB 280630Z 29018G28KT 9999 SHRA FEW033 SCT042 05/M01 Q1020 NOSIG

VFR

5°C / -1°C

[Mai mult]
Vânt 290º 19kt Gust 32kt
Vizibilitate >10km
Vremea -
Nori Few Clouds 3300ft
Presiune 1020
Schimbă No Significant change
Brut LZIB 280600Z 29019G32KT 9999 FEW033 05/M01 Q1020 NOSIG

VFR

5°C / -1°C

[Mai mult]
Vânt 280º 19kt Gust 29kt
Vizibilitate >10km
Vremea -
Nori Few Clouds 4800ft
Presiune 1019
Schimbă No Significant change
Brut LZIB 280530Z 28019G29KT 9999 FEW048 05/M01 Q1019 NOSIG

VFR

4°C / 0°C

[Mai mult]
Vânt 270º 16kt
Vizibilitate >10km
Vremea -
Nori Clouds and Visibility OK
Presiune 1019
Schimbă No Significant change
Brut LZIB 280500Z 27016KT CAVOK 04/M00 Q1019 NOSIG

VFR

4°C / 0°C

[Mai mult]
Vânt 280º 14kt
Vizibilitate >10km
Vremea -
Nori Few Clouds 4800ft
Presiune 1019
Schimbă No Significant change
Brut LZIB 280430Z 28014KT 9999 FEW048 04/M00 Q1019 NOSIG

VFR

5°C / 0°C

[Mai mult]
Vânt 280º 15kt
Vizibilitate >10km
Vremea -
Nori Few Clouds 3300ft
Presiune 1019
Schimbă No Significant change
Brut LZIB 280400Z 28015KT 9999 FEW033 05/00 Q1019 NOSIG

VFR

5°C / 0°C

[Mai mult]
Vânt 270º variable 240º to 300º 15kt
Vizibilitate >10km
Vremea -
Nori Scattered Clouds 3300ft
Presiune 1019
Schimbă No Significant change
Brut LZIB 280330Z 27015KT 240V300 9999 SCT033 05/00 Q1019 NOSIG

VFR

5°C / 0°C

[Mai mult]
Vânt 270º 16kt
Vizibilitate >10km
Vremea -
Nori Broken Clouds 3300ft
Presiune 1019
Schimbă No Significant change
Brut LZIB 280300Z 27016KT 9999 BKN033 05/00 Q1019 NOSIG

VFR

5°C / 0°C

[Mai mult]
Vânt 270º 17kt
Vizibilitate >10km
Vremea -
Nori Few Clouds 3600ft
Presiune 1019
Schimbă No Significant change
Brut LZIB 280230Z 27017KT 9999 FEW036 05/00 Q1019 NOSIG

VFR

5°C / 0°C

[Mai mult]
Vânt 280º 19kt Gust 29kt
Vizibilitate >10km
Vremea -
Nori Broken Clouds 3500ft
Presiune 1019
Schimbă No Significant change
Brut LZIB 280200Z 28019G29KT 9999 BKN035 05/00 Q1019 NOSIG

VFR

5°C / 0°C

[Mai mult]
Vânt 290º 23kt
Vizibilitate >10km
Vremea -
Nori Few Clouds 2700ft
Presiune 1018
Schimbă No Significant change
Brut LZIB 280130Z 29023KT 9999 FEW027 05/00 Q1018 NOSIG

VFR

4°C / 0°C

[Mai mult]
Vânt 290º 20kt Gust 30kt
Vizibilitate >10km
Vremea -
Nori Few Clouds 4900ft
Presiune 1017
Schimbă No Significant change
Brut LZIB 280100Z 29020G30KT 9999 FEW049 04/M00 Q1017 NOSIG

TAF pentru Ivanka pri Dunaji (LZIB)

From till


From till Wind 300º 15kt. Visibility 10km or more. Few Clouds 3000ft.
With 40% probability, Temporarly from till Light Showers Rain . Scattered Clouds 3000ft.
Temporarly from till Wind 200º 20kt. Gust 35kt.

Brut: TAF LZIB 281100Z 2812/2912 30015KT 9999 FEW030 PROB40 TEMPO 2812/2816 -SHRA SCT030 TEMPO 2812/2902 20020G35KT

Radar și nowcast de precipitații pentru Ivanka pri Dunaji

Burniță
Ușoară
Moderat
Greu
Foarte greu
Grindină

Markerul de locație este plasat în Ivanka pri Dunaji. Această animație arată radarul de precipitații pentru ultima oră, precum și o 1h prognoză. Ploaia sau ninsoarea slabă ar putea fi invizibilă pentru radar. Intensitatea precipitațiilor este codificată prin culori, de la albastru deschis la portocaliu.

Imagini satelitare și ploaie pentru Ivanka pri Dunaji, Slovacia

Markerul cu locaţia este poziţionat pe Ivanka pri Dunaji. [Mai mult]

Imaginea satelitară în timp real combină lumina vizibilă din timpul zilei cu radiația cu infraroșu din timpul nopții. Pe timp de noapte, imaginea nu este întunecată, deoarece radiația cu infraroșu poate detecta diferențele de temperatură. Din păcate, norii joși și ceața sunt greu de recunoscut față de temperatura de la sol, din această cauză putând fi invizibili pe timp de noapte. Imaginile satelitare Meteosat pentru Europa sunt actualizate în timp real din 5 în 5 minute. Imaginile GOES-16/GOES-17 (America de Nord și de Sud) și Himawari (Asia) sunt actualizate din 10 în 10 minute.

Cantitatea de precipitaţii este estimată cu ajutorul radarelor şi a sateliţilor. Estimările satelitare privind cantitatea de precipitaţii sunt mai puţin exacte noaptea decât în timpul zilei. Crucile portocalii marchează locurile unde fulger a fost detectat (over Europa).

Toate drepturile rezervate 2022 EUMETSAT / meteoblue. Datele despre fulgere furnizate de către nowcast.